Shemah Yisrael!
Hear, O Israel: the LORD our God, the LORD is one.
You shall love the LORD your God with all your heart and with all your soul and with all your might.
(Deuteronomy 6:4-5)
Houston / Ellington, TX, United States (KEFD) 29-36N 095-10W
Nov 18, 2019 - 03:50 PM EST / 2019.11.18 2050 UTC
Wind: from the WNW (300 degrees) at 5 MPH (4 KT):0
Visibility: 10 mile(s):0
Sky conditions: clear
Temperature: 71 F (22 C)
Dew Point: 46 F (8 C)
Relative Humidity: 40%
Pressure (altimeter): 29.88 in. Hg (1011 hPa)
ob: KEFD 182050Z 30004KT 10SM SKC 22/08 A2988 
cycle: 21
w e b m a s t e r   a t   s h e m a h   d o t   n e t